sensor_id;sensor_type;location;lat;lon;timestamp;P1;durP1;ratioP1;P2;durP2;ratioP2
1062;SDS011;520;50.932;6.962;2022-07-23T00:02:12;19.40;;;17.43;;
1062;SDS011;520;50.932;6.962;2022-07-23T00:04:42;18.83;;;16.90;;
1062;SDS011;520;50.932;6.962;2022-07-23T00:07:08;18.83;;;17.03;;
1062;SDS011;520;50.932;6.962;2022-07-23T00:09:35;19.87;;;17.33;;
1062;SDS011;520;50.932;6.962;2022-07-23T00:12:03;18.17;;;16.27;;
1062;SDS011;520;50.932;6.962;2022-07-23T00:14:30;15.73;;;14.13;;
1062;SDS011;520;50.932;6.962;2022-07-23T00:16:57;15.73;;;14.13;;
1062;SDS011;520;50.932;6.962;2022-07-23T00:19:25;14.43;;;12.90;;
1062;SDS011;520;50.932;6.962;2022-07-23T00:21:53;14.83;;;13.33;;
1062;SDS011;520;50.932;6.962;2022-07-23T00:24:22;16.67;;;14.93;;
1062;SDS011;520;50.932;6.962;2022-07-23T00:26:51;17.10;;;15.10;;
1062;SDS011;520;50.932;6.962;2022-07-23T00:29:18;17.60;;;15.90;;
1062;SDS011;520;50.932;6.962;2022-07-23T00:31:50;19.73;;;17.70;;
1062;SDS011;520;50.932;6.962;2022-07-23T00:34:20;19.03;;;16.97;;
1062;SDS011;520;50.932;6.962;2022-07-23T00:36:51;19.67;;;17.57;;
1062;SDS011;520;50.932;6.962;2022-07-23T00:39:23;17.10;;;15.40;;
1062;SDS011;520;50.932;6.962;2022-07-23T00:41:50;18.20;;;16.27;;
1062;SDS011;520;50.932;6.962;2022-07-23T00:44:21;16.20;;;14.47;;
1062;SDS011;520;50.932;6.962;2022-07-23T00:46:53;15.70;;;14.00;;
1062;SDS011;520;50.932;6.962;2022-07-23T00:49:23;13.93;;;12.43;;
1062;SDS011;520;50.932;6.962;2022-07-23T00:51:53;14.07;;;12.57;;
1062;SDS011;520;50.932;6.962;2022-07-23T00:54:24;17.30;;;13.90;;
1062;SDS011;520;50.932;6.962;2022-07-23T00:56:54;15.33;;;13.20;;
1062;SDS011;520;50.932;6.962;2022-07-23T00:59:21;17.90;;;13.77;;
1062;SDS011;520;50.932;6.962;2022-07-23T01:02:00;12.43;;;11.30;;
1062;SDS011;520;50.932;6.962;2022-07-23T01:04:30;13.40;;;12.00;;
1062;SDS011;520;50.932;6.962;2022-07-23T01:07:23;13.37;;;11.97;;
1062;SDS011;520;50.932;6.962;2022-07-23T01:09:51;15.83;;;12.90;;
1062;SDS011;520;50.932;6.962;2022-07-23T01:12:37;14.93;;;12.77;;
1062;SDS011;520;50.932;6.962;2022-07-23T01:15:05;16.33;;;13.53;;
1062;SDS011;520;50.932;6.962;2022-07-23T01:17:33;18.57;;;14.87;;
1062;SDS011;520;50.932;6.962;2022-07-23T01:20:08;16.17;;;13.37;;
1062;SDS011;520;50.932;6.962;2022-07-23T01:22:35;16.30;;;12.73;;
1062;SDS011;520;50.932;6.962;2022-07-23T01:25:04;13.83;;;12.20;;
1062;SDS011;520;50.932;6.962;2022-07-23T01:27:34;14.20;;;12.80;;
1062;SDS011;520;50.932;6.962;2022-07-23T01:30:02;14.43;;;12.93;;
1062;SDS011;520;50.932;6.962;2022-07-23T01:32:31;14.90;;;13.40;;
1062;SDS011;520;50.932;6.962;2022-07-23T01:35:01;14.67;;;13.27;;
1062;SDS011;520;50.932;6.962;2022-07-23T01:37:29;14.00;;;12.67;;
1062;SDS011;520;50.932;6.962;2022-07-23T01:39:56;12.27;;;11.03;;
1062;SDS011;520;50.932;6.962;2022-07-23T01:42:24;14.77;;;13.23;;
1062;SDS011;520;50.932;6.962;2022-07-23T01:44:51;11.50;;;10.40;;
1062;SDS011;520;50.932;6.962;2022-07-23T01:47:18;11.27;;;10.10;;
1062;SDS011;520;50.932;6.962;2022-07-23T01:49:49;12.07;;;9.90;;
1062;SDS011;520;50.932;6.962;2022-07-23T01:52:16;12.17;;;10.90;;
1062;SDS011;520;50.932;6.962;2022-07-23T01:54:46;12.53;;;11.33;;
1062;SDS011;520;50.932;6.962;2022-07-23T01:57:16;11.77;;;10.57;;
1062;SDS011;520;50.932;6.962;2022-07-23T01:59:43;11.47;;;10.37;;
1062;SDS011;520;50.932;6.962;2022-07-23T02:02:17;12.20;;;10.87;;
1062;SDS011;520;50.932;6.962;2022-07-23T02:04:50;12.70;;;10.37;;
1062;SDS011;520;50.932;6.962;2022-07-23T02:07:32;11.50;;;10.50;;
1062;SDS011;520;50.932;6.962;2022-07-23T02:10:00;11.33;;;10.13;;
1062;SDS011;520;50.932;6.962;2022-07-23T02:12:32;12.27;;;11.07;;
1062;SDS011;520;50.932;6.962;2022-07-23T02:15:25;12.63;;;11.43;;
1062;SDS011;520;50.932;6.962;2022-07-23T02:17:52;12.70;;;11.43;;
1062;SDS011;520;50.932;6.962;2022-07-23T02:20:30;13.20;;;11.90;;
1062;SDS011;520;50.932;6.962;2022-07-23T02:23:11;13.40;;;12.00;;
1062;SDS011;520;50.932;6.962;2022-07-23T02:25:44;14.63;;;13.13;;
1062;SDS011;520;50.932;6.962;2022-07-23T02:28:17;13.83;;;12.27;;
1062;SDS011;520;50.932;6.962;2022-07-23T02:31:04;14.57;;;13.00;;
1062;SDS011;520;50.932;6.962;2022-07-23T02:33:37;14.90;;;13.40;;
1062;SDS011;520;50.932;6.962;2022-07-23T02:36:13;15.83;;;14.23;;
1062;SDS011;520;50.932;6.962;2022-07-23T02:38:51;17.50;;;15.67;;
1062;SDS011;520;50.932;6.962;2022-07-23T02:41:18;17.43;;;15.17;;
1062;SDS011;520;50.932;6.962;2022-07-23T02:43:48;16.20;;;14.40;;
1062;SDS011;520;50.932;6.962;2022-07-23T02:46:20;18.63;;;16.57;;
1062;SDS011;520;50.932;6.962;2022-07-23T02:49:06;17.20;;;15.10;;
1062;SDS011;520;50.932;6.962;2022-07-23T02:51:46;14.93;;;13.40;;
1062;SDS011;520;50.932;6.962;2022-07-23T02:54:16;15.53;;;13.93;;
1062;SDS011;520;50.932;6.962;2022-07-23T02:56:51;15.00;;;13.40;;
1062;SDS011;520;50.932;6.962;2022-07-23T03:02:20;15.50;;;13.90;;
1062;SDS011;520;50.932;6.962;2022-07-23T03:05:02;14.37;;;12.80;;
1062;SDS011;520;50.932;6.962;2022-07-23T03:07:30;14.43;;;12.90;;
1062;SDS011;520;50.932;6.962;2022-07-23T03:10:15;14.20;;;12.80;;
1062;SDS011;520;50.932;6.962;2022-07-23T03:15:22;15.50;;;13.23;;
1062;SDS011;520;50.932;6.962;2022-07-23T03:20:46;17.57;;;15.80;;
1062;SDS011;520;50.932;6.962;2022-07-23T03:23:13;19.50;;;16.93;;
1062;SDS011;520;50.932;6.962;2022-07-23T03:26:01;20.03;;;18.03;;
1062;SDS011;520;50.932;6.962;2022-07-23T03:28:47;18.20;;;16.07;;
1062;SDS011;520;50.932;6.962;2022-07-23T03:31:14;18.77;;;16.40;;
1062;SDS011;520;50.932;6.962;2022-07-23T03:36:36;20.93;;;17.60;;
1062;SDS011;520;50.932;6.962;2022-07-23T03:39:02;19.03;;;17.03;;
1062;SDS011;520;50.932;6.962;2022-07-23T03:45:09;19.50;;;17.33;;
1062;SDS011;520;50.932;6.962;2022-07-23T03:47:45;18.07;;;15.90;;
1062;SDS011;520;50.932;6.962;2022-07-23T03:50:15;19.53;;;17.43;;
1062;SDS011;520;50.932;6.962;2022-07-23T03:52:44;20.97;;;17.60;;
1062;SDS011;520;50.932;6.962;2022-07-23T03:56:18;20.70;;;17.20;;
1062;SDS011;520;50.932;6.962;2022-07-23T03:58:57;22.57;;;17.70;;
1062;SDS011;520;50.932;6.962;2022-07-23T04:01:24;20.77;;;18.10;;
1062;SDS011;520;50.932;6.962;2022-07-23T04:03:57;21.00;;;17.60;;
1062;SDS011;520;50.932;6.962;2022-07-23T04:09:31;20.97;;;18.57;;
1062;SDS011;520;50.932;6.962;2022-07-23T04:12:30;20.07;;;17.90;;
1062;SDS011;520;50.932;6.962;2022-07-23T04:15:11;21.87;;;17.17;;
1062;SDS011;520;50.932;6.962;2022-07-23T04:17:53;20.57;;;18.37;;
1062;SDS011;520;50.932;6.962;2022-07-23T04:20:20;25.13;;;18.20;;
1062;SDS011;520;50.932;6.962;2022-07-23T04:22:57;22.40;;;17.33;;
1062;SDS011;520;50.932;6.962;2022-07-23T04:25:44;19.80;;;17.27;;
1062;SDS011;520;50.932;6.962;2022-07-23T04:28:10;18.07;;;15.77;;
1062;SDS011;520;50.932;6.962;2022-07-23T04:31:15;18.33;;;16.40;;
1062;SDS011;520;50.932;6.962;2022-07-23T04:33:41;18.30;;;15.73;;
1062;SDS011;520;50.932;6.962;2022-07-23T04:36:10;16.67;;;15.00;;
1062;SDS011;520;50.932;6.962;2022-07-23T04:38:37;16.63;;;14.90;;
1062;SDS011;520;50.932;6.962;2022-07-23T04:41:07;18.57;;;14.90;;
1062;SDS011;520;50.932;6.962;2022-07-23T04:43:43;19.03;;;16.27;;
1062;SDS011;520;50.932;6.962;2022-07-23T04:46:19;19.77;;;17.07;;
1062;SDS011;520;50.932;6.962;2022-07-23T04:51:24;18.40;;;16.00;;
1062;SDS011;520;50.932;6.962;2022-07-23T04:53:54;19.30;;;16.97;;
1062;SDS011;520;50.932;6.962;2022-07-23T04:56:21;18.17;;;16.27;;
1062;SDS011;520;50.932;6.962;2022-07-23T04:58:48;19.03;;;17.00;;
1062;SDS011;520;50.932;6.962;2022-07-23T05:01:15;20.43;;;18.27;;
1062;SDS011;520;50.932;6.962;2022-07-23T05:05:03;21.30;;;17.73;;
1062;SDS011;520;50.932;6.962;2022-07-23T05:07:13;18.07;;;16.27;;
1062;SDS011;520;50.932;6.962;2022-07-23T05:09:43;21.30;;;16.70;;
1062;SDS011;520;50.932;6.962;2022-07-23T05:12:17;17.80;;;15.63;;
1062;SDS011;520;50.932;6.962;2022-07-23T05:14:46;21.67;;;18.07;;
1062;SDS011;520;50.932;6.962;2022-07-23T05:17:13;23.13;;;18.53;;
1062;SDS011;520;50.932;6.962;2022-07-23T05:19:43;18.50;;;16.53;;
1062;SDS011;520;50.932;6.962;2022-07-23T05:22:25;22.30;;;17.70;;
1062;SDS011;520;50.932;6.962;2022-07-23T05:25:00;23.37;;;19.70;;
1062;SDS011;520;50.932;6.962;2022-07-23T05:27:33;21.93;;;18.30;;
1062;SDS011;520;50.932;6.962;2022-07-23T05:30:09;21.83;;;18.30;;
1062;SDS011;520;50.932;6.962;2022-07-23T05:32:42;18.90;;;16.60;;
1062;SDS011;520;50.932;6.962;2022-07-23T05:35:30;19.27;;;17.17;;
1062;SDS011;520;50.932;6.962;2022-07-23T05:37:59;21.30;;;17.60;;
1062;SDS011;520;50.932;6.962;2022-07-23T05:40:26;19.23;;;16.93;;
1062;SDS011;520;50.932;6.962;2022-07-23T05:42:53;19.50;;;16.37;;
1062;SDS011;520;50.932;6.962;2022-07-23T05:45:19;20.13;;;17.33;;
1062;SDS011;520;50.932;6.962;2022-07-23T05:48:07;19.37;;;16.10;;
1062;SDS011;520;50.932;6.962;2022-07-23T05:50:37;20.93;;;17.00;;
1062;SDS011;520;50.932;6.962;2022-07-23T05:53:04;22.00;;;17.53;;
1062;SDS011;520;50.932;6.962;2022-07-23T05:55:42;22.30;;;17.40;;
1062;SDS011;520;50.932;6.962;2022-07-23T05:58:09;23.40;;;18.10;;
1062;SDS011;520;50.932;6.962;2022-07-23T06:04:20;21.40;;;17.00;;
1062;SDS011;520;50.932;6.962;2022-07-23T06:06:56;22.33;;;16.47;;
1062;SDS011;520;50.932;6.962;2022-07-23T06:09:23;17.67;;;15.80;;
1062;SDS011;520;50.932;6.962;2022-07-23T06:11:51;19.90;;;16.30;;
1062;SDS011;520;50.932;6.962;2022-07-23T06:14:17;18.77;;;16.27;;
1062;SDS011;520;50.932;6.962;2022-07-23T06:16:46;19.80;;;16.00;;
1062;SDS011;520;50.932;6.962;2022-07-23T06:22:08;20.47;;;16.20;;
1062;SDS011;520;50.932;6.962;2022-07-23T06:24:49;20.97;;;15.20;;
1062;SDS011;520;50.932;6.962;2022-07-23T06:27:39;21.23;;;16.07;;
1062;SDS011;520;50.932;6.962;2022-07-23T06:33:15;19.87;;;16.57;;
1062;SDS011;520;50.932;6.962;2022-07-23T06:35:54;16.63;;;14.57;;
1062;SDS011;520;50.932;6.962;2022-07-23T06:38:23;17.97;;;15.30;;
1062;SDS011;520;50.932;6.962;2022-07-23T06:43:52;18.83;;;16.87;;
1062;SDS011;520;50.932;6.962;2022-07-23T06:49:10;19.37;;;15.53;;
1062;SDS011;520;50.932;6.962;2022-07-23T06:51:42;18.73;;;15.97;;
1062;SDS011;520;50.932;6.962;2022-07-23T07:00:07;16.33;;;14.00;;
1062;SDS011;520;50.932;6.962;2022-07-23T07:02:45;17.83;;;14.93;;
1062;SDS011;520;50.932;6.962;2022-07-23T07:05:17;16.50;;;13.67;;
1062;SDS011;520;50.932;6.962;2022-07-23T07:07:56;15.57;;;13.43;;
1062;SDS011;520;50.932;6.962;2022-07-23T07:10:35;13.03;;;11.60;;
1062;SDS011;520;50.932;6.962;2022-07-23T07:13:04;15.33;;;12.70;;
1062;SDS011;520;50.932;6.962;2022-07-23T07:15:37;14.80;;;13.00;;
1062;SDS011;520;50.932;6.962;2022-07-23T07:18:04;17.13;;;13.50;;
1062;SDS011;520;50.932;6.962;2022-07-23T07:20:31;15.57;;;13.97;;
1062;SDS011;520;50.932;6.962;2022-07-23T07:23:01;15.00;;;13.40;;
1062;SDS011;520;50.932;6.962;2022-07-23T07:35:26;14.50;;;11.87;;
1062;SDS011;520;50.932;6.962;2022-07-23T07:38:05;14.70;;;12.57;;
1062;SDS011;520;50.932;6.962;2022-07-23T07:40:34;16.70;;;11.20;;
1062;SDS011;520;50.932;6.962;2022-07-23T07:43:18;14.40;;;11.27;;
1062;SDS011;520;50.932;6.962;2022-07-23T07:45:55;13.97;;;12.50;;
1062;SDS011;520;50.932;6.962;2022-07-23T07:48:25;17.20;;;15.57;;
1062;SDS011;520;50.932;6.962;2022-07-23T07:50:59;16.07;;;14.37;;
1062;SDS011;520;50.932;6.962;2022-07-23T07:53:37;16.43;;;13.60;;
1062;SDS011;520;50.932;6.962;2022-07-23T07:56:16;14.00;;;12.50;;
1062;SDS011;520;50.932;6.962;2022-07-23T07:58:45;15.50;;;14.00;;
1062;SDS011;520;50.932;6.962;2022-07-23T08:04:10;15.57;;;14.07;;
1062;SDS011;520;50.932;6.962;2022-07-23T08:09:36;14.03;;;12.63;;
1062;SDS011;520;50.932;6.962;2022-07-23T08:12:15;13.50;;;12.10;;
1062;SDS011;520;50.932;6.962;2022-07-23T08:14:54;13.97;;;12.63;;
1062;SDS011;520;50.932;6.962;2022-07-23T08:17:34;15.37;;;13.87;;
1062;SDS011;520;50.932;6.962;2022-07-23T08:20:13;14.70;;;13.37;;
1062;SDS011;520;50.932;6.962;2022-07-23T08:22:42;12.87;;;11.67;;
1062;SDS011;520;50.932;6.962;2022-07-23T08:28:18;14.73;;;13.50;;
1062;SDS011;520;50.932;6.962;2022-07-23T08:30:47;14.60;;;13.10;;
1062;SDS011;520;50.932;6.962;2022-07-23T08:33:15;13.97;;;12.77;;
1062;SDS011;520;50.932;6.962;2022-07-23T08:35:45;14.70;;;13.50;;
1062;SDS011;520;50.932;6.962;2022-07-23T08:38:20;14.70;;;13.47;;
1062;SDS011;520;50.932;6.962;2022-07-23T08:40:55;13.47;;;12.17;;
1062;SDS011;520;50.932;6.962;2022-07-23T08:44:19;11.90;;;10.90;;
1062;SDS011;520;50.932;6.962;2022-07-23T08:47:03;12.40;;;11.30;;
1062;SDS011;520;50.932;6.962;2022-07-23T08:49:41;12.50;;;11.50;;
1062;SDS011;520;50.932;6.962;2022-07-23T08:52:08;12.00;;;10.90;;
1062;SDS011;520;50.932;6.962;2022-07-23T08:57:36;11.43;;;10.40;;
1062;SDS011;520;50.932;6.962;2022-07-23T09:00:06;11.43;;;10.53;;
1062;SDS011;520;50.932;6.962;2022-07-23T09:02:45;11.03;;;10.03;;
1062;SDS011;520;50.932;6.962;2022-07-23T09:05:15;10.87;;;9.97;;
1062;SDS011;520;50.932;6.962;2022-07-23T09:08:09;10.13;;;9.20;;
1062;SDS011;520;50.932;6.962;2022-07-23T09:20:21;11.47;;;10.63;;
1062;SDS011;520;50.932;6.962;2022-07-23T09:22:48;11.57;;;10.67;;
1062;SDS011;520;50.932;6.962;2022-07-23T09:25:18;12.03;;;11.13;;
1062;SDS011;520;50.932;6.962;2022-07-23T09:30:38;11.13;;;10.33;;
1062;SDS011;520;50.932;6.962;2022-07-23T09:33:23;11.07;;;10.07;;
1062;SDS011;520;50.932;6.962;2022-07-23T09:36:09;12.23;;;11.13;;
1062;SDS011;520;50.932;6.962;2022-07-23T09:38:47;12.37;;;11.40;;
1062;SDS011;520;50.932;6.962;2022-07-23T09:41:25;11.40;;;10.40;;
1062;SDS011;520;50.932;6.962;2022-07-23T09:44:16;12.87;;;11.60;;
1062;SDS011;520;50.932;6.962;2022-07-23T09:46:50;13.00;;;11.90;;
1062;SDS011;520;50.932;6.962;2022-07-23T09:49:30;13.47;;;12.23;;
1062;SDS011;520;50.932;6.962;2022-07-23T09:52:29;14.70;;;13.60;;
1062;SDS011;520;50.932;6.962;2022-07-23T09:55:07;13.37;;;12.17;;
1062;SDS011;520;50.932;6.962;2022-07-23T09:57:38;14.50;;;13.30;;
1062;SDS011;520;50.932;6.962;2022-07-23T10:00:10;14.40;;;13.07;;
1062;SDS011;520;50.932;6.962;2022-07-23T10:02:44;14.60;;;13.23;;
1062;SDS011;520;50.932;6.962;2022-07-23T10:05:12;12.53;;;11.53;;
1062;SDS011;520;50.932;6.962;2022-07-23T10:07:52;14.40;;;13.03;;
1062;SDS011;520;50.932;6.962;2022-07-23T10:13:04;14.00;;;12.87;;
1062;SDS011;520;50.932;6.962;2022-07-23T10:15:47;14.80;;;13.13;;
1062;SDS011;520;50.932;6.962;2022-07-23T10:18:40;12.90;;;11.33;;
1062;SDS011;520;50.932;6.962;2022-07-23T10:21:16;12.40;;;11.40;;
1062;SDS011;520;50.932;6.962;2022-07-23T10:26:58;13.30;;;12.20;;
1062;SDS011;520;50.932;6.962;2022-07-23T10:29:47;12.70;;;11.50;;
1062;SDS011;520;50.932;6.962;2022-07-23T10:38:18;9.30;;;8.57;;
1062;SDS011;520;50.932;6.962;2022-07-23T10:40:56;8.60;;;7.80;;
1062;SDS011;520;50.932;6.962;2022-07-23T10:43:29;8.90;;;8.20;;
1062;SDS011;520;50.932;6.962;2022-07-23T10:49:29;7.10;;;6.10;;
1062;SDS011;520;50.932;6.962;2022-07-23T10:57:50;9.20;;;8.50;;
1062;SDS011;520;50.932;6.962;2022-07-23T11:01:33;9.63;;;8.87;;
1062;SDS011;520;50.932;6.962;2022-07-23T11:04:05;8.37;;;7.53;;
1062;SDS011;520;50.932;6.962;2022-07-23T11:07:15;9.57;;;8.57;;
1062;SDS011;520;50.932;6.962;2022-07-23T11:10:05;6.93;;;6.37;;
1062;SDS011;520;50.932;6.962;2022-07-23T11:12:47;7.83;;;7.23;;
1062;SDS011;520;50.932;6.962;2022-07-23T11:15:14;6.83;;;6.30;;
1062;SDS011;520;50.932;6.962;2022-07-23T11:20:51;6.00;;;5.50;;
1062;SDS011;520;50.932;6.962;2022-07-23T11:24:21;5.70;;;5.30;;
1062;SDS011;520;50.932;6.962;2022-07-23T11:32:05;6.93;;;6.40;;
1062;SDS011;520;50.932;6.962;2022-07-23T11:34:49;6.73;;;6.03;;
1062;SDS011;520;50.932;6.962;2022-07-23T11:37:41;6.77;;;6.13;;
1062;SDS011;520;50.932;6.962;2022-07-23T11:40:11;7.93;;;7.33;;
1062;SDS011;520;50.932;6.962;2022-07-23T11:45:36;8.67;;;8.07;;
1062;SDS011;520;50.932;6.962;2022-07-23T11:50:48;8.23;;;7.63;;
1062;SDS011;520;50.932;6.962;2022-07-23T11:53:32;7.57;;;7.07;;
1062;SDS011;520;50.932;6.962;2022-07-23T11:56:13;7.90;;;7.23;;
1062;SDS011;520;50.932;6.962;2022-07-23T11:58:54;7.63;;;7.03;;
1062;SDS011;520;50.932;6.962;2022-07-23T12:01:55;7.70;;;7.10;;
1062;SDS011;520;50.932;6.962;2022-07-23T12:04:38;6.37;;;5.87;;
1062;SDS011;520;50.932;6.962;2022-07-23T12:07:38;8.10;;;7.30;;
1062;SDS011;520;50.932;6.962;2022-07-23T12:10:18;7.40;;;6.87;;
1062;SDS011;520;50.932;6.962;2022-07-23T12:15:56;8.03;;;7.43;;
1062;SDS011;520;50.932;6.962;2022-07-23T12:18:26;9.13;;;8.43;;
1062;SDS011;520;50.932;6.962;2022-07-23T12:21:06;8.00;;;7.50;;
1062;SDS011;520;50.932;6.962;2022-07-23T12:23:35;7.73;;;7.10;;
1062;SDS011;520;50.932;6.962;2022-07-23T12:26:04;7.60;;;6.87;;
1062;SDS011;520;50.932;6.962;2022-07-23T12:28:33;8.07;;;7.40;;
1062;SDS011;520;50.932;6.962;2022-07-23T12:31:07;6.30;;;5.80;;
1062;SDS011;520;50.932;6.962;2022-07-23T12:33:40;6.90;;;6.30;;
1062;SDS011;520;50.932;6.962;2022-07-23T12:36:36;6.70;;;6.10;;
1062;SDS011;520;50.932;6.962;2022-07-23T12:39:28;6.73;;;6.17;;
1062;SDS011;520;50.932;6.962;2022-07-23T12:42:14;5.30;;;5.00;;
1062;SDS011;520;50.932;6.962;2022-07-23T12:45:07;5.37;;;4.97;;
1062;SDS011;520;50.932;6.962;2022-07-23T12:48:03;5.27;;;4.30;;
1062;SDS011;520;50.932;6.962;2022-07-23T12:50:39;5.37;;;4.90;;
1062;SDS011;520;50.932;6.962;2022-07-23T12:53:22;3.90;;;3.60;;
1062;SDS011;520;50.932;6.962;2022-07-23T12:55:58;4.10;;;3.80;;
1062;SDS011;520;50.932;6.962;2022-07-23T13:02:02;4.87;;;4.57;;
1062;SDS011;520;50.932;6.962;2022-07-23T13:04:32;5.20;;;4.70;;
1062;SDS011;520;50.932;6.962;2022-07-23T13:07:07;4.23;;;3.83;;
1062;SDS011;520;50.932;6.962;2022-07-23T13:09:55;4.70;;;4.30;;
1062;SDS011;520;50.932;6.962;2022-07-23T13:12:46;4.30;;;3.90;;
1062;SDS011;520;50.932;6.962;2022-07-23T13:15:22;5.00;;;4.40;;
1062;SDS011;520;50.932;6.962;2022-07-23T13:17:48;4.43;;;4.03;;
1062;SDS011;520;50.932;6.962;2022-07-23T13:20:26;4.73;;;4.37;;
1062;SDS011;520;50.932;6.962;2022-07-23T13:22:52;4.70;;;3.60;;
1062;SDS011;520;50.932;6.962;2022-07-23T13:25:25;4.57;;;4.07;;
1062;SDS011;520;50.932;6.962;2022-07-23T13:27:55;4.83;;;3.87;;
1062;SDS011;520;50.932;6.962;2022-07-23T13:30:24;3.80;;;3.60;;
1062;SDS011;520;50.932;6.962;2022-07-23T13:32:56;3.97;;;3.47;;
1062;SDS011;520;50.932;6.962;2022-07-23T13:35:42;4.80;;;4.40;;
1062;SDS011;520;50.932;6.962;2022-07-23T13:38:09;4.23;;;3.93;;
1062;SDS011;520;50.932;6.962;2022-07-23T13:40:52;5.67;;;4.47;;
1062;SDS011;520;50.932;6.962;2022-07-23T13:43:23;3.63;;;3.33;;
1062;SDS011;520;50.932;6.962;2022-07-23T13:45:51;3.50;;;3.20;;
1062;SDS011;520;50.932;6.962;2022-07-23T13:48:34;3.63;;;3.20;;
1062;SDS011;520;50.932;6.962;2022-07-23T13:51:12;3.90;;;3.60;;
1062;SDS011;520;50.932;6.962;2022-07-23T13:54:13;3.43;;;3.13;;
1062;SDS011;520;50.932;6.962;2022-07-23T13:56:56;3.63;;;3.33;;
1062;SDS011;520;50.932;6.962;2022-07-23T13:59:26;4.13;;;3.73;;
1062;SDS011;520;50.932;6.962;2022-07-23T14:01:53;5.67;;;4.27;;
1062;SDS011;520;50.932;6.962;2022-07-23T14:04:47;3.73;;;3.43;;
1062;SDS011;520;50.932;6.962;2022-07-23T14:07:15;3.93;;;3.53;;
1062;SDS011;520;50.932;6.962;2022-07-23T14:09:50;3.97;;;3.60;;
1062;SDS011;520;50.932;6.962;2022-07-23T14:12:31;5.00;;;3.57;;
1062;SDS011;520;50.932;6.962;2022-07-23T14:15:07;4.80;;;4.30;;
1062;SDS011;520;50.932;6.962;2022-07-23T14:17:41;3.80;;;3.50;;
1062;SDS011;520;50.932;6.962;2022-07-23T14:20:35;4.50;;;4.20;;
1062;SDS011;520;50.932;6.962;2022-07-23T14:23:02;3.77;;;3.47;;
1062;SDS011;520;50.932;6.962;2022-07-23T14:25:31;3.93;;;3.50;;
1062;SDS011;520;50.932;6.962;2022-07-23T14:28:10;4.80;;;4.43;;
1062;SDS011;520;50.932;6.962;2022-07-23T14:30:38;3.80;;;3.50;;
1062;SDS011;520;50.932;6.962;2022-07-23T14:33:07;3.70;;;3.40;;
1062;SDS011;520;50.932;6.962;2022-07-23T14:35:34;3.63;;;3.43;;
1062;SDS011;520;50.932;6.962;2022-07-23T14:38:03;3.80;;;3.50;;
1062;SDS011;520;50.932;6.962;2022-07-23T14:40:30;3.53;;;3.10;;
1062;SDS011;520;50.932;6.962;2022-07-23T14:42:57;3.93;;;3.63;;
1062;SDS011;520;50.932;6.962;2022-07-23T14:45:24;3.43;;;3.13;;
1062;SDS011;520;50.932;6.962;2022-07-23T14:47:51;4.03;;;3.63;;
1062;SDS011;520;50.932;6.962;2022-07-23T14:50:18;5.00;;;4.53;;
1062;SDS011;520;50.932;6.962;2022-07-23T14:52:45;4.03;;;3.63;;
1062;SDS011;520;50.932;6.962;2022-07-23T14:55:14;4.50;;;3.70;;
1062;SDS011;520;50.932;6.962;2022-07-23T14:57:44;3.40;;;3.10;;
1062;SDS011;520;50.932;6.962;2022-07-23T15:00:14;3.93;;;3.53;;
1062;SDS011;520;50.932;6.962;2022-07-23T15:02:42;4.83;;;3.83;;
1062;SDS011;520;50.932;6.962;2022-07-23T15:05:13;3.40;;;3.10;;
1062;SDS011;520;50.932;6.962;2022-07-23T15:07:41;3.93;;;3.63;;
1062;SDS011;520;50.932;6.962;2022-07-23T15:10:08;6.50;;;4.10;;
1062;SDS011;520;50.932;6.962;2022-07-23T15:12:35;3.83;;;3.53;;
1062;SDS011;520;50.932;6.962;2022-07-23T15:15:02;4.10;;;3.30;;
1062;SDS011;520;50.932;6.962;2022-07-23T15:17:31;4.20;;;3.90;;
1062;SDS011;520;50.932;6.962;2022-07-23T15:19:59;5.20;;;4.07;;
1062;SDS011;520;50.932;6.962;2022-07-23T15:22:26;3.83;;;3.53;;
1062;SDS011;520;50.932;6.962;2022-07-23T15:24:54;3.33;;;3.13;;
1062;SDS011;520;50.932;6.962;2022-07-23T15:27:21;3.80;;;3.40;;
1062;SDS011;520;50.932;6.962;2022-07-23T15:29:48;4.03;;;3.70;;
1062;SDS011;520;50.932;6.962;2022-07-23T15:32:16;4.80;;;4.30;;
1062;SDS011;520;50.932;6.962;2022-07-23T15:34:43;4.53;;;4.13;;
1062;SDS011;520;50.932;6.962;2022-07-23T15:37:10;5.10;;;3.40;;
1062;SDS011;520;50.932;6.962;2022-07-23T15:39:39;5.33;;;4.40;;
1062;SDS011;520;50.932;6.962;2022-07-23T15:42:06;5.37;;;4.87;;
1062;SDS011;520;50.932;6.962;2022-07-23T15:44:37;4.03;;;3.63;;
1062;SDS011;520;50.932;6.962;2022-07-23T15:47:10;3.17;;;2.87;;
1062;SDS011;520;50.932;6.962;2022-07-23T15:49:40;4.07;;;3.77;;
1062;SDS011;520;50.932;6.962;2022-07-23T15:52:07;5.03;;;3.80;;
1062;SDS011;520;50.932;6.962;2022-07-23T15:54:36;4.33;;;4.00;;
1062;SDS011;520;50.932;6.962;2022-07-23T15:57:06;4.00;;;3.70;;
1062;SDS011;520;50.932;6.962;2022-07-23T15:59:33;4.47;;;4.07;;
1062;SDS011;520;50.932;6.962;2022-07-23T16:02:00;4.83;;;4.40;;
1062;SDS011;520;50.932;6.962;2022-07-23T16:04:28;5.50;;;4.97;;
1062;SDS011;520;50.932;6.962;2022-07-23T16:06:56;12.73;;;11.03;;
1062;SDS011;520;50.932;6.962;2022-07-23T16:09:24;7.13;;;6.20;;
1062;SDS011;520;50.932;6.962;2022-07-23T16:11:53;8.83;;;7.33;;
1062;SDS011;520;50.932;6.962;2022-07-23T16:14:21;14.50;;;11.30;;
1062;SDS011;520;50.932;6.962;2022-07-23T16:16:48;7.23;;;6.63;;
1062;SDS011;520;50.932;6.962;2022-07-23T16:19:38;6.90;;;6.20;;
1062;SDS011;520;50.932;6.962;2022-07-23T16:22:05;7.63;;;6.80;;
1062;SDS011;520;50.932;6.962;2022-07-23T16:24:32;5.90;;;5.27;;
1062;SDS011;520;50.932;6.962;2022-07-23T16:27:09;4.83;;;4.30;;
1062;SDS011;520;50.932;6.962;2022-07-23T16:29:39;4.30;;;3.90;;
1062;SDS011;520;50.932;6.962;2022-07-23T16:32:21;5.87;;;3.27;;
1062;SDS011;520;50.932;6.962;2022-07-23T16:34:57;4.47;;;3.50;;
1062;SDS011;520;50.932;6.962;2022-07-23T16:37:28;5.10;;;4.43;;
1062;SDS011;520;50.932;6.962;2022-07-23T16:43:43;4.50;;;4.10;;
1062;SDS011;520;50.932;6.962;2022-07-23T16:46:13;4.50;;;4.20;;
1062;SDS011;520;50.932;6.962;2022-07-23T16:49:00;3.93;;;3.60;;
1062;SDS011;520;50.932;6.962;2022-07-23T16:51:28;3.77;;;3.40;;
1062;SDS011;520;50.932;6.962;2022-07-23T16:54:01;3.40;;;3.10;;
1062;SDS011;520;50.932;6.962;2022-07-23T16:56:37;3.73;;;3.43;;
1062;SDS011;520;50.932;6.962;2022-07-23T16:59:07;5.00;;;3.57;;
1062;SDS011;520;50.932;6.962;2022-07-23T17:01:44;4.30;;;3.90;;
1062;SDS011;520;50.932;6.962;2022-07-23T17:04:12;3.90;;;3.63;;
1062;SDS011;520;50.932;6.962;2022-07-23T17:06:42;4.00;;;3.70;;
1062;SDS011;520;50.932;6.962;2022-07-23T17:09:14;3.70;;;3.50;;
1062;SDS011;520;50.932;6.962;2022-07-23T17:11:41;4.20;;;3.20;;
1062;SDS011;520;50.932;6.962;2022-07-23T17:14:15;4.27;;;3.87;;
1062;SDS011;520;50.932;6.962;2022-07-23T17:16:56;3.93;;;3.20;;
1062;SDS011;520;50.932;6.962;2022-07-23T17:19:47;3.90;;;3.60;;
1062;SDS011;520;50.932;6.962;2022-07-23T17:22:27;3.77;;;3.47;;
1062;SDS011;520;50.932;6.962;2022-07-23T17:25:26;4.87;;;4.47;;
1062;SDS011;520;50.932;6.962;2022-07-23T17:27:55;5.60;;;5.10;;
1062;SDS011;520;50.932;6.962;2022-07-23T17:30:22;5.50;;;5.10;;
1062;SDS011;520;50.932;6.962;2022-07-23T17:32:53;5.27;;;4.70;;
1062;SDS011;520;50.932;6.962;2022-07-23T17:35:19;4.23;;;3.87;;
1062;SDS011;520;50.932;6.962;2022-07-23T17:37:52;3.60;;;3.30;;
1062;SDS011;520;50.932;6.962;2022-07-23T17:40:28;4.20;;;3.90;;
1062;SDS011;520;50.932;6.962;2022-07-23T17:42:55;4.77;;;4.30;;
1062;SDS011;520;50.932;6.962;2022-07-23T17:45:25;5.83;;;4.10;;
1062;SDS011;520;50.932;6.962;2022-07-23T17:47:59;4.33;;;3.93;;
1062;SDS011;520;50.932;6.962;2022-07-23T17:53:43;4.30;;;3.90;;
1062;SDS011;520;50.932;6.962;2022-07-23T17:59:58;5.20;;;4.27;;
1062;SDS011;520;50.932;6.962;2022-07-23T18:16:15;5.93;;;4.20;;
1062;SDS011;520;50.932;6.962;2022-07-23T18:26:19;5.73;;;4.40;;
1062;SDS011;520;50.932;6.962;2022-07-23T18:44:38;4.43;;;4.03;;